createdAt,value
2022-07-26T00:03:56.686Z,24.46
2022-07-26T00:08:10.783Z,24.31
2022-07-26T00:12:12.950Z,24.15
2022-07-26T00:16:14.984Z,23.98
2022-07-26T00:20:17.053Z,23.98
2022-07-26T00:24:20.143Z,23.67
2022-07-26T00:28:22.054Z,23.43
2022-07-26T00:32:24.598Z,23.61
2022-07-26T00:36:28.716Z,23.67
2022-07-26T00:40:30.716Z,23.69
2022-07-26T00:44:38.015Z,23.69
2022-07-26T00:48:40.142Z,23.53
2022-07-26T00:52:42.921Z,23.36
2022-07-26T00:56:45.688Z,23.12
2022-07-26T01:00:48.073Z,23.14
2022-07-26T01:04:50.026Z,23.04
2022-07-26T01:08:51.984Z,23.02
2022-07-26T01:12:54.287Z,22.98
2022-07-26T01:16:56.364Z,22.92
2022-07-26T01:21:01.427Z,22.82
2022-07-26T01:25:16.167Z,22.74
2022-07-26T01:29:18.055Z,22.69
2022-07-26T01:33:19.850Z,22.50
2022-07-26T01:37:21.749Z,21.55
2022-07-26T01:41:37.620Z,21.28
2022-07-26T01:45:40.352Z,21.05
2022-07-26T01:49:44.342Z,21.17
2022-07-26T01:53:46.536Z,21.38
2022-07-26T01:57:48.338Z,21.48
2022-07-26T02:01:50.554Z,21.58
2022-07-26T02:05:52.564Z,21.57
2022-07-26T02:09:54.925Z,21.60
2022-07-26T02:13:56.986Z,21.58
2022-07-26T02:17:58.832Z,21.55
2022-07-26T02:22:00.678Z,21.52
2022-07-26T02:26:02.802Z,21.46
2022-07-26T02:30:04.938Z,21.02
2022-07-26T02:34:07.168Z,21.10
2022-07-26T02:38:10.649Z,21.17
2022-07-26T02:42:13.547Z,20.92
2022-07-26T02:46:15.606Z,20.52
2022-07-26T02:50:22.058Z,20.12
2022-07-26T02:54:23.953Z,20.08
2022-07-26T02:58:27.034Z,19.95
2022-07-26T03:02:33.115Z,20.07
2022-07-26T03:06:35.090Z,20.14
2022-07-26T03:10:37.120Z,19.96
2022-07-26T03:14:39.218Z,19.78
2022-07-26T03:18:41.059Z,20.04
2022-07-26T03:22:43.049Z,20.23
2022-07-26T03:26:47.490Z,20.24
2022-07-26T03:30:49.360Z,20.17
2022-07-26T03:34:51.348Z,20.25
2022-07-26T03:38:53.282Z,20.06
2022-07-26T03:42:55.134Z,19.88
2022-07-26T03:46:57.032Z,20.20
2022-07-26T03:50:58.926Z,20.29
2022-07-26T03:55:00.950Z,20.42
2022-07-26T03:59:04.653Z,20.39
2022-07-26T04:03:06.724Z,19.58
2022-07-26T04:07:08.625Z,19.22
2022-07-26T04:11:12.177Z,18.97
2022-07-26T04:15:18.516Z,18.80
2022-07-26T04:19:20.331Z,18.94
2022-07-26T04:23:23.267Z,19.13
2022-07-26T04:27:25.409Z,19.08
2022-07-26T04:31:27.374Z,19.15
2022-07-26T04:35:36.798Z,19.37
2022-07-26T04:39:38.622Z,19.60
2022-07-26T04:43:40.591Z,19.76
2022-07-26T04:47:43.488Z,20.01
2022-07-26T04:51:45.413Z,20.26
2022-07-26T04:55:47.921Z,20.21
2022-07-26T04:59:58.375Z,20.50
2022-07-26T05:04:13.184Z,20.60
2022-07-26T05:08:16.635Z,20.59
2022-07-26T05:12:19.142Z,20.80
2022-07-26T05:20:46.692Z,21.05
2022-07-26T05:24:48.591Z,21.34
2022-07-26T05:28:50.475Z,21.58
2022-07-26T05:32:52.328Z,21.76
2022-07-26T05:36:54.255Z,21.99
2022-07-26T05:40:56.075Z,22.20
2022-07-26T05:44:57.959Z,22.39
2022-07-26T05:48:59.865Z,22.56
2022-07-26T05:53:01.959Z,22.69
2022-07-26T05:57:03.998Z,22.87
2022-07-26T06:01:05.983Z,23.06
2022-07-26T06:05:10.928Z,23.24
2022-07-26T06:09:12.887Z,23.44
2022-07-26T06:13:15.099Z,23.66
2022-07-26T06:17:17.529Z,23.88
2022-07-26T06:21:19.543Z,24.05
2022-07-26T06:25:21.345Z,24.29
2022-07-26T06:29:24.472Z,24.52
2022-07-26T06:33:36.478Z,24.82
2022-07-26T06:37:38.470Z,25.10
2022-07-26T06:41:40.438Z,25.19
2022-07-26T06:45:42.269Z,25.33
2022-07-26T06:49:44.847Z,25.51
2022-07-26T06:53:46.747Z,25.68
2022-07-26T06:57:50.290Z,25.89
2022-07-26T07:01:59.620Z,25.98
2022-07-26T07:06:02.474Z,26.15
2022-07-26T07:10:05.145Z,26.18
2022-07-26T07:14:08.624Z,26.32
2022-07-26T07:18:11.032Z,26.47
2022-07-26T07:22:13.017Z,26.43
2022-07-26T07:26:15.084Z,26.42
2022-07-26T07:30:17.500Z,26.63
2022-07-26T07:34:22.771Z,26.73
2022-07-26T07:38:28.634Z,26.92
2022-07-26T07:42:32.196Z,27.09
2022-07-26T07:46:34.356Z,27.22
2022-07-26T07:50:36.500Z,26.97
2022-07-26T07:54:38.570Z,27.07
2022-07-26T07:58:40.607Z,27.24
2022-07-26T08:02:42.856Z,27.48
2022-07-26T08:06:50.462Z,27.96
2022-07-26T08:10:53.552Z,28.16
2022-07-26T08:14:55.494Z,28.70
2022-07-26T08:18:58.470Z,28.83
2022-07-26T08:23:00.540Z,28.84
2022-07-26T08:27:02.602Z,28.79
2022-07-26T08:31:05.182Z,29.22
2022-07-26T08:35:17.318Z,28.77
2022-07-26T08:39:20.402Z,28.54
2022-07-26T08:43:22.603Z,28.59
2022-07-26T08:47:39.993Z,28.61
2022-07-26T08:51:47.031Z,29.04
2022-07-26T08:56:06.422Z,28.87
2022-07-26T09:00:15.447Z,28.98
2022-07-26T09:04:30.597Z,28.50
2022-07-26T09:08:33.465Z,28.78
2022-07-26T09:12:35.367Z,28.98
2022-07-26T09:16:40.098Z,28.94
2022-07-26T09:20:46.437Z,28.94
2022-07-26T09:24:49.232Z,28.98
2022-07-26T09:29:04.919Z,29.01
2022-07-26T09:33:07.892Z,29.46
2022-07-26T09:37:12.432Z,29.72
2022-07-26T09:41:20.549Z,29.53
2022-07-26T09:45:22.868Z,29.42
2022-07-26T09:49:30.934Z,29.70
2022-07-26T09:53:44.473Z,29.76
2022-07-26T09:57:46.445Z,29.91
2022-07-26T10:01:49.028Z,30.14
2022-07-26T10:05:52.116Z,29.99
2022-07-26T10:10:20.649Z,30.08
2022-07-26T10:14:34.792Z,30.29
2022-07-26T10:18:36.744Z,30.72
2022-07-26T10:22:40.408Z,30.56
2022-07-26T10:26:45.691Z,30.66
2022-07-26T10:30:47.577Z,30.63
2022-07-26T10:34:49.564Z,30.47
2022-07-26T10:38:58.642Z,30.63
2022-07-26T10:47:36.049Z,30.92
2022-07-26T10:51:39.286Z,30.85
2022-07-26T10:55:48.655Z,31.12
2022-07-26T10:59:56.083Z,30.92
2022-07-26T11:03:59.186Z,31.10
2022-07-26T11:08:05.367Z,31.58
2022-07-26T11:12:20.560Z,31.61
2022-07-26T11:16:23.442Z,31.59
2022-07-26T11:20:29.754Z,31.66
2022-07-26T11:24:31.962Z,31.81
2022-07-26T11:29:00.225Z,32.18
2022-07-26T11:33:02.690Z,32.38
2022-07-26T11:37:05.072Z,32.33
2022-07-26T11:41:07.020Z,32.33
2022-07-26T11:45:12.084Z,32.73
2022-07-26T11:49:41.509Z,32.43
2022-07-26T11:53:46.560Z,32.48
2022-07-26T11:57:49.166Z,32.84
2022-07-26T12:01:52.330Z,32.96
2022-07-26T12:06:06.688Z,32.88
2022-07-26T12:10:08.651Z,33.22
2022-07-26T12:14:13.657Z,33.12
2022-07-26T12:18:27.168Z,33.15
2022-07-26T12:22:29.031Z,33.11
2022-07-26T12:26:31.137Z,33.26
2022-07-26T12:30:36.269Z,33.99
2022-07-26T12:34:38.837Z,34.18
2022-07-26T12:38:40.781Z,34.45
2022-07-26T12:42:43.929Z,34.01
2022-07-26T12:46:46.019Z,33.96
2022-07-26T12:50:48.116Z,33.51
2022-07-26T12:54:51.023Z,33.77
2022-07-26T12:59:02.557Z,33.88
2022-07-26T13:03:04.487Z,34.29
2022-07-26T13:07:06.604Z,34.63
2022-07-26T13:11:08.544Z,34.59
2022-07-26T13:15:10.588Z,34.43
2022-07-26T13:19:12.589Z,34.43
2022-07-26T13:23:15.871Z,34.51
2022-07-26T13:27:23.836Z,34.72
2022-07-26T13:31:25.786Z,34.43
2022-07-26T13:35:28.192Z,34.71
2022-07-26T13:39:31.832Z,34.84
2022-07-26T13:43:35.385Z,34.61
2022-07-26T13:47:37.383Z,34.63
2022-07-26T13:51:57.630Z,34.28
2022-07-26T13:55:59.549Z,34.70
2022-07-26T14:00:01.472Z,34.59
2022-07-26T14:04:08.325Z,35.11
2022-07-26T14:08:10.762Z,35.26
2022-07-26T14:12:13.596Z,35.36
2022-07-26T14:16:15.549Z,35.40
2022-07-26T14:20:17.560Z,35.63
2022-07-26T14:24:20.849Z,35.61
2022-07-26T14:28:23.006Z,35.94
2022-07-26T14:32:25.059Z,36.52
2022-07-26T14:36:27.029Z,37.35
2022-07-26T14:40:30.984Z,36.13
2022-07-26T14:44:34.070Z,36.71
2022-07-26T14:48:53.924Z,35.88
2022-07-26T14:52:56.638Z,36.47
2022-07-26T14:56:58.654Z,36.66
2022-07-26T15:01:00.572Z,35.74
2022-07-26T15:05:02.501Z,36.75
2022-07-26T15:09:05.539Z,37.36
2022-07-26T15:13:07.642Z,36.29
2022-07-26T15:17:09.550Z,36.35
2022-07-26T15:21:11.494Z,36.87
2022-07-26T15:25:13.600Z,36.67
2022-07-26T15:29:15.853Z,36.57
2022-07-26T15:33:20.097Z,36.90
2022-07-26T15:37:22.268Z,37.17
2022-07-26T15:41:24.423Z,38.99
2022-07-26T15:45:26.399Z,39.85
2022-07-26T15:49:28.332Z,41.03
2022-07-26T15:53:31.379Z,40.42
2022-07-26T15:57:33.244Z,41.69
2022-07-26T16:01:35.954Z,40.85
2022-07-26T16:05:37.972Z,39.80
2022-07-26T16:09:39.871Z,40.53
2022-07-26T16:13:41.737Z,41.35
2022-07-26T16:17:46.800Z,41.93
2022-07-26T16:21:48.869Z,41.24
2022-07-26T16:25:51.120Z,41.35
2022-07-26T16:29:53.644Z,41.35
2022-07-26T16:33:55.716Z,41.52
2022-07-26T16:37:57.664Z,41.39
2022-07-26T16:42:04.572Z,40.91
2022-07-26T16:46:08.561Z,40.41
2022-07-26T16:50:10.590Z,41.18
2022-07-26T16:54:12.519Z,40.36
2022-07-26T16:58:14.419Z,39.69
2022-07-26T17:02:16.502Z,38.97
2022-07-26T17:06:20.549Z,39.34
2022-07-26T17:10:22.451Z,38.99
2022-07-26T17:14:24.454Z,38.74
2022-07-26T17:18:26.458Z,38.25
2022-07-26T17:22:28.541Z,37.28
2022-07-26T17:26:30.545Z,36.99
2022-07-26T17:30:32.542Z,36.94
2022-07-26T17:34:34.856Z,36.74
2022-07-26T17:38:36.754Z,36.82
2022-07-26T17:42:39.933Z,36.80
2022-07-26T17:46:42.161Z,36.00
2022-07-26T17:50:44.291Z,35.59
2022-07-26T17:54:46.218Z,34.69
2022-07-26T17:58:48.103Z,34.74
2022-07-26T18:02:50.182Z,34.50
2022-07-26T18:06:52.058Z,33.79
2022-07-26T18:10:54.710Z,33.60
2022-07-26T18:14:56.877Z,33.30
2022-07-26T18:18:59.493Z,33.17
2022-07-26T18:23:02.738Z,32.74
2022-07-26T18:27:04.640Z,32.32
2022-07-26T18:31:06.540Z,31.95
2022-07-26T18:35:12.742Z,31.56
2022-07-26T18:39:14.840Z,31.13
2022-07-26T18:43:19.918Z,30.89
2022-07-26T18:47:21.974Z,30.56
2022-07-26T18:51:23.910Z,30.29
2022-07-26T18:55:28.740Z,30.15
2022-07-26T18:59:31.187Z,30.05
2022-07-26T19:03:34.876Z,29.98
2022-07-26T19:07:38.252Z,30.04
2022-07-26T19:11:40.380Z,29.91
2022-07-26T19:15:42.470Z,29.74
2022-07-26T19:19:44.460Z,29.80
2022-07-26T19:23:46.394Z,29.66
2022-07-26T19:27:48.310Z,29.60
2022-07-26T19:31:50.354Z,29.53
2022-07-26T19:35:53.512Z,29.49
2022-07-26T19:40:03.467Z,29.43
2022-07-26T19:44:05.501Z,29.28
2022-07-26T19:48:07.890Z,29.15
2022-07-26T19:52:11.890Z,28.86
2022-07-26T19:56:14.311Z,28.89
2022-07-26T20:00:17.734Z,28.66
2022-07-26T20:04:19.854Z,28.64
2022-07-26T20:08:21.833Z,28.51
2022-07-26T20:12:26.060Z,28.44
2022-07-26T20:16:28.415Z,28.39
2022-07-26T20:20:30.550Z,28.48
2022-07-26T20:24:32.976Z,28.36
2022-07-26T20:28:34.976Z,28.41
2022-07-26T20:32:36.979Z,28.34
2022-07-26T20:36:39.167Z,28.24
2022-07-26T20:40:41.155Z,27.91
2022-07-26T20:44:44.537Z,27.80
2022-07-26T20:48:46.625Z,27.69
2022-07-26T20:52:48.812Z,27.65
2022-07-26T20:56:50.755Z,27.61
2022-07-26T21:00:52.999Z,27.60
2022-07-26T21:04:55.224Z,27.59
2022-07-26T21:08:57.936Z,27.36
2022-07-26T21:13:01.155Z,27.15
2022-07-26T21:17:06.623Z,26.86
2022-07-26T21:21:11.265Z,26.71
2022-07-26T21:25:13.457Z,26.77
2022-07-26T21:29:15.813Z,26.71
2022-07-26T21:33:18.064Z,26.34
2022-07-26T21:37:19.942Z,26.25
2022-07-26T21:41:21.804Z,26.03
2022-07-26T21:45:23.776Z,26.00
2022-07-26T21:49:25.739Z,26.19
2022-07-26T21:53:27.642Z,26.20
2022-07-26T21:57:29.483Z,26.07
2022-07-26T22:01:33.806Z,26.12
2022-07-26T22:05:55.747Z,26.06
2022-07-26T22:10:17.751Z,26.05
2022-07-26T22:14:23.475Z,25.94
2022-07-26T22:18:32.057Z,25.82
2022-07-26T22:22:34.276Z,25.81
2022-07-26T22:26:36.375Z,25.55
2022-07-26T22:30:39.166Z,25.21
2022-07-26T22:34:40.998Z,24.90
2022-07-26T22:38:44.259Z,24.69
2022-07-26T22:43:09.230Z,24.52
2022-07-26T22:47:11.245Z,24.80
2022-07-26T22:51:13.108Z,24.46
2022-07-26T22:55:15.965Z,24.09
2022-07-26T22:59:17.817Z,23.62
2022-07-26T23:03:22.173Z,23.15
2022-07-26T23:07:25.448Z,22.79
2022-07-26T23:11:28.617Z,22.71
2022-07-26T23:15:33.645Z,22.55
2022-07-26T23:19:35.860Z,22.82
2022-07-26T23:23:37.869Z,22.84
2022-07-26T23:27:39.972Z,22.98
2022-07-26T23:31:42.450Z,23.04
2022-07-26T23:35:44.364Z,22.96
2022-07-26T23:39:46.205Z,22.97
2022-07-26T23:43:48.184Z,23.04
2022-07-26T23:47:50.054Z,23.07
2022-07-26T23:51:52.263Z,23.06
2022-07-26T23:55:54.318Z,22.60
2022-07-26T23:59:56.223Z,22.69
